createdAt,value
2022-08-08T00:00:51.717Z,93.493652
2022-08-08T00:00:51.953Z,93.792725
2022-08-08T00:01:52.373Z,94.000244
2022-08-08T00:02:45.928Z,93.695068
2022-08-08T00:03:55.410Z,93.896484
2022-08-08T00:05:09.374Z,93.896484
2022-08-08T00:06:14.797Z,93.792725
2022-08-08T00:07:24.424Z,94.0979
2022-08-08T00:08:34.109Z,94.403076
2022-08-08T00:09:42.820Z,94.20166
2022-08-08T00:10:52.606Z,93.389893
2022-08-08T00:12:05.718Z,92.785645
2022-08-08T00:13:12.974Z,92.437744
2022-08-08T00:14:48.851Z,91.827393
2022-08-08T00:15:56.189Z,92.132568
2022-08-08T00:16:44.958Z,92.944336
2022-08-08T00:18:02.939Z,92.944336
2022-08-08T00:19:04.304Z,92.840576
2022-08-08T00:20:14.542Z,92.797852
2022-08-08T00:21:24.589Z,92.5354
2022-08-08T00:22:34.453Z,92.694092
2022-08-08T00:23:47.563Z,91.986084
2022-08-08T00:24:55.841Z,91.320801
2022-08-08T00:26:03.497Z,90.917969
2022-08-08T00:27:14.178Z,91.827393
2022-08-08T00:28:34.831Z,92.333984
2022-08-08T00:29:44.508Z,92.437744
2022-08-08T00:30:45.069Z,92.132568
2022-08-08T00:32:15.912Z,90.618896
2022-08-08T00:33:05.567Z,89.605713
2022-08-08T00:34:17.648Z,88.592529
2022-08-08T00:35:24.983Z,88.391113
2022-08-08T00:36:35.050Z,88.897705
2022-08-08T00:37:48.293Z,87.72583
2022-08-08T00:38:56.059Z,88.739014
2022-08-08T00:41:08.542Z,89.648438
2022-08-08T00:41:16.461Z,89.703369
2022-08-08T00:42:31.480Z,90.209961
2022-08-08T00:43:40.511Z,90.863037
2022-08-08T00:44:47.493Z,89.94751
2022-08-08T00:45:57.342Z,88.232422
2022-08-08T00:47:14.018Z,87.927246
2022-08-08T00:48:29.155Z,88.128662
2022-08-08T00:49:27.365Z,87.823486
2022-08-08T00:50:40.789Z,87.524414
2022-08-08T00:51:47.802Z,87.316895
2022-08-08T00:52:58.026Z,87.115479
2022-08-08T00:54:13.947Z,87.359619
2022-08-08T00:55:17.861Z,88.635254
2022-08-08T00:56:29.650Z,89.483643
2022-08-08T00:57:37.324Z,89.990234
2022-08-08T00:58:54.087Z,89.990234
2022-08-08T00:59:56.754Z,90.197754
2022-08-08T01:01:07.523Z,90.29541
2022-08-08T01:02:34.718Z,90.093994
2022-08-08T01:03:57.841Z,90.39917
2022-08-08T01:04:37.701Z,89.587402
2022-08-08T01:05:59.001Z,88.818359
2022-08-08T01:07:01.559Z,88.983154
2022-08-08T01:08:08.807Z,88.677979
2022-08-08T01:09:35.313Z,88.775635
2022-08-08T01:10:29.215Z,88.269043
2022-08-08T01:11:37.895Z,88.879395
2022-08-08T01:12:46.590Z,89.788818
2022-08-08T01:13:58.029Z,90.197754
2022-08-08T01:15:06.848Z,90.704346
2022-08-08T01:16:17.026Z,90.496826
2022-08-08T01:17:35.174Z,90.29541
2022-08-08T01:18:51.221Z,90.39917
2022-08-08T01:19:52.721Z,90.441895
2022-08-08T01:20:58.582Z,90.74707
2022-08-08T01:22:12.891Z,90.441895
2022-08-08T01:23:55.651Z,90.74707
2022-08-08T01:24:28.633Z,89.788818
2022-08-08T01:25:39.997Z,89.990234
2022-08-08T01:26:49.420Z,90.704346
2022-08-08T01:27:59.230Z,90.093994
2022-08-08T01:29:07.485Z,90.197754
2022-08-08T01:30:17.202Z,90.39917
2022-08-08T01:32:03.120Z,90.093994
2022-08-08T01:32:37.589Z,89.990234
2022-08-08T01:33:54.527Z,89.892578
2022-08-08T01:34:58.968Z,89.990234
2022-08-08T01:36:08.665Z,89.483643
2022-08-08T01:37:21.756Z,90.093994
2022-08-08T01:38:30.032Z,89.892578
2022-08-08T01:39:41.839Z,89.990234
2022-08-08T01:40:50.414Z,90.39917
2022-08-08T01:41:59.148Z,90.496826
2022-08-08T01:43:07.845Z,91.003418
2022-08-08T01:44:17.577Z,91.003418
2022-08-08T01:45:27.423Z,91.107178
2022-08-08T01:46:36.061Z,91.204834
2022-08-08T01:48:15.179Z,91.247559
2022-08-08T01:48:54.513Z,91.351318
2022-08-08T01:50:04.201Z,91.351318
2022-08-08T01:51:17.267Z,91.149902
2022-08-08T01:52:40.895Z,91.046143
2022-08-08T01:54:33.484Z,91.046143
2022-08-08T01:55:18.670Z,90.643311
2022-08-08T01:56:26.486Z,90.338135
2022-08-08T01:57:07.178Z,90.136719
2022-08-08T01:58:16.912Z,90.441895
2022-08-08T01:59:37.956Z,91.046143
2022-08-08T02:00:38.380Z,91.595459
2022-08-08T02:01:54.937Z,92.102051
2022-08-08T02:02:58.793Z,92.205811
2022-08-08T02:04:09.534Z,92.816162
2022-08-08T02:05:20.325Z,92.956543
2022-08-08T02:06:32.960Z,93.261719
2022-08-08T02:07:48.651Z,93.261719
2022-08-08T02:08:52.173Z,93.060303
2022-08-08T02:10:03.032Z,92.956543
2022-08-08T02:11:23.019Z,92.999268
2022-08-08T02:12:22.409Z,93.511963
2022-08-08T02:13:52.499Z,93.914795
2022-08-08T02:14:49.729Z,93.969727
2022-08-08T02:15:52.401Z,93.670654
2022-08-08T02:17:01.109Z,93.87207
2022-08-08T02:18:11.821Z,93.164062
2022-08-08T02:19:27.182Z,93.164062
2022-08-08T02:21:02.036Z,93.060303
2022-08-08T02:21:40.861Z,93.060303
2022-08-08T02:22:52.715Z,92.816162
2022-08-08T02:23:59.418Z,92.913818
2022-08-08T02:25:11.491Z,92.913818
2022-08-08T02:26:18.915Z,92.712402
2022-08-08T02:27:28.575Z,92.608643
2022-08-08T02:28:39.238Z,92.510986
2022-08-08T02:29:52.124Z,92.608643
2022-08-08T02:31:01.910Z,92.510986
2022-08-08T02:32:15.693Z,92.510986
2022-08-08T02:33:21.961Z,92.816162
2022-08-08T02:34:33.248Z,92.712402
2022-08-08T02:36:03.669Z,92.407227
2022-08-08T02:36:54.604Z,92.407227
2022-08-08T02:38:01.684Z,92.651367
2022-08-08T02:39:41.450Z,93.060303
2022-08-08T02:40:23.114Z,93.261719
2022-08-08T02:41:58.290Z,93.566895
2022-08-08T02:42:42.659Z,93.768311
2022-08-08T02:44:34.836Z,93.463135
2022-08-08T02:45:01.852Z,93.463135
2022-08-08T02:46:12.527Z,93.566895
2022-08-08T02:47:22.182Z,93.365479
2022-08-08T02:48:30.002Z,93.87207
2022-08-08T02:49:47.620Z,93.566895
2022-08-08T02:50:52.976Z,93.713379
2022-08-08T02:52:02.127Z,93.511963
2022-08-08T02:53:10.727Z,93.408203
2022-08-08T02:54:19.513Z,93.713379
2022-08-08T02:55:31.762Z,93.408203
2022-08-08T02:56:40.827Z,93.304443
2022-08-08T02:57:52.221Z,93.103027
2022-08-08T02:59:01.168Z,92.797852
2022-08-08T03:00:15.810Z,93.206787
2022-08-08T03:01:21.804Z,93.609619
2022-08-08T03:02:30.629Z,94.116211
2022-08-08T03:03:46.378Z,93.914795
2022-08-08T03:05:01.769Z,93.914795
2022-08-08T03:06:01.527Z,94.018555
2022-08-08T03:07:13.405Z,93.914795
2022-08-08T03:08:22.893Z,94.116211
2022-08-08T03:09:33.072Z,93.811035
2022-08-08T03:10:44.180Z,93.511963
2022-08-08T03:12:01.406Z,93.811035
2022-08-08T03:13:07.272Z,93.811035
2022-08-08T03:15:54.852Z,93.304443
2022-08-08T03:15:54.938Z,93.408203
2022-08-08T03:16:37.177Z,92.74292
2022-08-08T03:17:52.176Z,92.74292
2022-08-08T03:18:53.930Z,92.74292
2022-08-08T03:20:03.930Z,93.652344
2022-08-08T03:21:14.571Z,93.859863
2022-08-08T03:22:37.862Z,93.95752
2022-08-08T03:23:39.611Z,94.061279
2022-08-08T03:24:45.278Z,93.756104
2022-08-08T03:25:55.966Z,93.859863
2022-08-08T03:27:04.685Z,93.353271
2022-08-08T03:28:13.391Z,93.103027
2022-08-08T03:29:27.155Z,93.206787
2022-08-08T03:30:34.866Z,93.206787
2022-08-08T03:32:05.075Z,93.206787
2022-08-08T03:32:58.776Z,93.206787
2022-08-08T03:34:03.831Z,93.103027
2022-08-08T03:35:15.837Z,93.060303
2022-08-08T03:36:27.448Z,93.060303
2022-08-08T03:38:00.354Z,93.261719
2022-08-08T03:38:55.547Z,93.261719
2022-08-08T03:40:00.779Z,93.060303
2022-08-08T03:41:08.756Z,92.901611
2022-08-08T03:42:28.918Z,92.901611
2022-08-08T03:43:25.364Z,92.596436
2022-08-08T03:44:38.538Z,92.700195
2022-08-08T03:46:03.615Z,93.103027
2022-08-08T03:46:53.963Z,93.206787
2022-08-08T03:48:03.157Z,93.450928
2022-08-08T03:49:30.890Z,93.859863
2022-08-08T03:50:24.439Z,94.262695
2022-08-08T03:51:40.764Z,94.671631
2022-08-08T03:52:44.625Z,95.178223
2022-08-08T03:53:54.795Z,95.178223
2022-08-08T03:55:10.018Z,94.976807
2022-08-08T03:56:31.382Z,94.873047
2022-08-08T03:58:10.107Z,94.567871
2022-08-08T03:58:37.708Z,94.464111
2022-08-08T03:59:57.238Z,94.567871
2022-08-08T04:01:02.965Z,94.567871
2022-08-08T04:02:13.432Z,94.567871
2022-08-08T04:03:19.113Z,94.366455
2022-08-08T04:04:30.558Z,94.262695
2022-08-08T04:05:39.844Z,94.165039
2022-08-08T04:06:50.278Z,94.061279
2022-08-08T04:08:00.546Z,93.652344
2022-08-08T04:09:11.136Z,93.353271
2022-08-08T04:10:19.373Z,93.450928
2022-08-08T04:11:29.065Z,92.840576
2022-08-08T04:12:39.740Z,93.353271
2022-08-08T04:14:04.542Z,94.061279
2022-08-08T04:14:58.117Z,94.262695
2022-08-08T04:16:07.853Z,94.262695
2022-08-08T04:17:22.953Z,94.061279
2022-08-08T04:18:27.162Z,93.859863
2022-08-08T04:19:36.518Z,93.353271
2022-08-08T04:20:45.470Z,93.145752
2022-08-08T04:21:55.185Z,93.145752
2022-08-08T04:23:07.033Z,93.554688
2022-08-08T04:24:19.578Z,93.554688
2022-08-08T04:25:28.020Z,93.652344
2022-08-08T04:26:35.406Z,94.165039
2022-08-08T04:28:03.796Z,94.262695
2022-08-08T04:28:56.192Z,94.262695
2022-08-08T04:30:17.672Z,94.165039
2022-08-08T04:31:30.997Z,93.95752
2022-08-08T04:32:40.221Z,94.061279
2022-08-08T04:33:42.112Z,94.165039
2022-08-08T04:34:49.668Z,94.165039
2022-08-08T04:35:59.375Z,94.165039
2022-08-08T04:37:08.081Z,93.859863
2022-08-08T04:38:21.552Z,94.165039
2022-08-08T04:39:48.601Z,94.165039
2022-08-08T04:40:38.124Z,93.95752
2022-08-08T04:41:47.763Z,93.859863
2022-08-08T04:42:57.940Z,93.554688
2022-08-08T04:44:07.129Z,93.756104
2022-08-08T04:45:16.834Z,93.95752
2022-08-08T04:46:26.523Z,93.95752
2022-08-08T04:47:36.594Z,93.95752
2022-08-08T04:48:45.853Z,94.464111
2022-08-08T04:49:59.249Z,94.769287
2022-08-08T04:51:05.167Z,94.830322
2022-08-08T04:52:14.825Z,94.830322
2022-08-08T04:53:52.758Z,94.378662
2022-08-08T04:54:40.457Z,93.768311
2022-08-08T04:55:47.941Z,94.177246
2022-08-08T04:56:57.604Z,94.030762
2022-08-08T04:58:10.841Z,93.725586
2022-08-08T04:59:16.967Z,93.52417
2022-08-08T05:00:26.611Z,93.218994
2022-08-08T05:01:47.933Z,92.816162
2022-08-08T05:02:47.187Z,92.059326
2022-08-08T05:04:07.014Z,91.85791
2022-08-08T05:05:10.301Z,91.656494
2022-08-08T05:06:26.025Z,91.351318
2022-08-08T05:07:33.073Z,91.552734
2022-08-08T05:08:39.448Z,91.351318
2022-08-08T05:09:49.116Z,91.455078
2022-08-08T05:10:58.858Z,91.308594
2022-08-08T05:12:09.183Z,91.003418
2022-08-08T05:13:18.205Z,91.412354
2022-08-08T05:14:29.198Z,90.802002
2022-08-08T05:16:48.620Z,89.892578
2022-08-08T05:16:55.736Z,89.990234
2022-08-08T05:17:58.898Z,90.496826
2022-08-08T05:19:08.597Z,90.39917
2022-08-08T05:20:19.300Z,90.600586
2022-08-08T05:21:29.978Z,90.600586
2022-08-08T05:22:38.658Z,90.356445
2022-08-08T05:23:49.512Z,89.447021
2022-08-08T05:24:59.036Z,88.433838
2022-08-08T05:26:07.737Z,88.635254
2022-08-08T05:27:17.479Z,88.531494
2022-08-08T05:28:41.514Z,88.635254
2022-08-08T05:29:37.892Z,88.739014
2022-08-08T05:30:47.096Z,88.739014
2022-08-08T05:32:02.784Z,88.635254
2022-08-08T05:33:08.102Z,88.94043
2022-08-08T05:34:16.811Z,89.746094
2022-08-08T05:35:27.488Z,90.155029
2022-08-08T05:36:38.226Z,90.252686
2022-08-08T05:37:52.384Z,90.05127
2022-08-08T05:38:59.605Z,90.155029
2022-08-08T05:40:07.320Z,90.356445
2022-08-08T05:41:17.002Z,90.155029
2022-08-08T05:42:27.683Z,89.849854
2022-08-08T05:43:39.062Z,89.703369
2022-08-08T05:44:46.062Z,89.703369
2022-08-08T05:46:03.791Z,88.793945
2022-08-08T05:47:07.368Z,88.189697
2022-08-08T05:48:18.011Z,88.043213
2022-08-08T05:49:28.679Z,87.945557
2022-08-08T05:50:39.388Z,86.932373
2022-08-08T05:51:50.153Z,87.036133
2022-08-08T05:53:23.255Z,86.688232
2022-08-08T05:54:25.131Z,86.38916
2022-08-08T05:55:21.173Z,86.688232
2022-08-08T05:56:29.843Z,86.651611
2022-08-08T05:57:57.978Z,86.248779
2022-08-08T05:58:54.348Z,86.248779
2022-08-08T06:00:22.404Z,86.346436
2022-08-08T06:01:11.507Z,86.407471
2022-08-08T06:02:22.195Z,85.803223
2022-08-08T06:03:31.990Z,84.185791
2022-08-08T06:04:41.583Z,83.477783
2022-08-08T06:05:51.795Z,84.588623
2022-08-08T06:07:02.138Z,84.350586
2022-08-08T06:08:20.492Z,85.15625
2022-08-08T06:09:42.281Z,85.864258
2022-08-08T06:10:33.105Z,85.961914
2022-08-08T06:11:45.964Z,85.662842
2022-08-08T06:12:52.455Z,85.760498
2022-08-08T06:14:01.138Z,84.954834
2022-08-08T06:15:12.502Z,85.05249
2022-08-08T06:16:25.210Z,85.15625
2022-08-08T06:17:50.638Z,84.411621
2022-08-08T06:18:43.032Z,83.905029
2022-08-08T06:19:53.469Z,84.106445
2022-08-08T06:21:03.484Z,83.966064
2022-08-08T06:22:42.426Z,84.674072
2022-08-08T06:23:26.334Z,83.868408
2022-08-08T06:24:36.029Z,83.258057
2022-08-08T06:26:35.423Z,83.660889
2022-08-08T06:26:55.351Z,83.459473
2022-08-08T06:28:05.002Z,83.02002
2022-08-08T06:29:27.090Z,83.319092
2022-08-08T06:30:26.563Z,82.617188
2022-08-08T06:31:52.674Z,82.714844
2022-08-08T06:32:47.436Z,82.91626
2022-08-08T06:34:26.859Z,82.678223
2022-08-08T06:35:12.495Z,82.37915
2022-08-08T06:36:17.585Z,82.879639
2022-08-08T06:37:27.283Z,82.580566
2022-08-08T06:38:37.905Z,82.440186
2022-08-08T06:39:56.322Z,81.530762
2022-08-08T06:40:57.190Z,81.835938
2022-08-08T06:42:05.856Z,81.329346
2022-08-08T06:43:15.496Z,80.322266
2022-08-08T06:44:26.144Z,80.688477
2022-08-08T06:45:35.818Z,80.786133
2022-08-08T06:46:45.502Z,79.882812
2022-08-08T06:47:58.767Z,79.345703
2022-08-08T06:49:05.860Z,79.943848
2022-08-08T06:50:17.504Z,80.145264
2022-08-08T06:51:31.328Z,80.212402
2022-08-08T06:52:37.935Z,79.608154
2022-08-08T06:53:50.682Z,79.766846
2022-08-08T06:54:59.524Z,79.168701
2022-08-08T06:56:07.949Z,77.923584
2022-08-08T06:57:18.816Z,77.923584
2022-08-08T06:58:30.627Z,77.685547
2022-08-08T07:00:01.835Z,77.587891
2022-08-08T07:00:49.678Z,77.050781
2022-08-08T07:02:18.382Z,76.544189
2022-08-08T07:03:10.106Z,76.611328
2022-08-08T07:04:39.418Z,75.769043
2022-08-08T07:05:30.422Z,75.671387
2022-08-08T07:06:41.086Z,74.768066
2022-08-08T07:07:49.754Z,74.835205
2022-08-08T07:09:01.109Z,75.134277
2022-08-08T07:10:09.127Z,73.596191
2022-08-08T07:11:22.329Z,74.395752
2022-08-08T07:12:30.448Z,73.364258
2022-08-08T07:13:38.616Z,73.028564
2022-08-08T07:14:49.458Z,72.827148
2022-08-08T07:16:04.061Z,72.589111
2022-08-08T07:17:08.819Z,73.059082
2022-08-08T07:18:34.808Z,71.759033
2022-08-08T07:19:29.695Z,70.758057
2022-08-08T07:20:40.457Z,71.221924
2022-08-08T07:21:50.061Z,71.325684
2022-08-08T07:22:59.781Z,70.294189
2022-08-08T07:24:09.846Z,70.593262
2022-08-08T07:25:19.312Z,70.458984
2022-08-08T07:26:28.893Z,69.622803
2022-08-08T07:27:47.036Z,69.226074
2022-08-08T07:28:50.175Z,67.230225
2022-08-08T07:30:05.889Z,68.19458
2022-08-08T07:31:11.440Z,69.091797
2022-08-08T07:32:22.127Z,67.767334
2022-08-08T07:33:37.831Z,68.762207
2022-08-08T07:34:48.474Z,66.998291
2022-08-08T07:35:51.384Z,66.766357
2022-08-08T07:37:00.730Z,67.266846
2022-08-08T07:38:18.584Z,65.771484
2022-08-08T07:39:22.414Z,65.838623
2022-08-08T07:40:32.929Z,65.142822
2022-08-08T07:41:58.934Z,66.308594
2022-08-08T07:42:53.124Z,65.313721
2022-08-08T07:44:04.654Z,65.209961
2022-08-08T07:45:12.538Z,65.875244
2022-08-08T07:46:29.326Z,65.576172
2022-08-08T07:47:38.667Z,63.48877
2022-08-08T07:48:44.507Z,64.483643
2022-08-08T07:49:54.187Z,64.685059
2022-08-08T07:51:04.375Z,64.453125
2022-08-08T07:52:19.601Z,64.849854
2022-08-08T07:53:52.564Z,63.15918
2022-08-08T07:54:34.920Z,64.221191
2022-08-08T07:55:45.574Z,63.427734
2022-08-08T07:56:54.291Z,64.819336
2022-08-08T07:58:02.996Z,63.256836
2022-08-08T07:59:11.632Z,63.061523
2022-08-08T08:00:21.334Z,64.251709
2022-08-08T08:02:33.850Z,64.154053
2022-08-08T08:02:42.656Z,64.282227
2022-08-08T08:03:50.359Z,63.720703
2022-08-08T08:05:00.220Z,65.112305
2022-08-08T08:06:10.905Z,65.643311
2022-08-08T08:07:26.810Z,65.240479
2022-08-08T08:08:32.306Z,64.343262
2022-08-08T08:09:42.027Z,63.348389
2022-08-08T08:10:52.707Z,63.348389
2022-08-08T08:12:01.388Z,64.312744
2022-08-08T08:13:17.794Z,65.179443
2022-08-08T08:14:21.704Z,63.555908
2022-08-08T08:15:31.757Z,63.330078
2022-08-08T08:16:41.033Z,61.169434
2022-08-08T08:17:55.579Z,62.860107
2022-08-08T08:18:59.669Z,62.231445
2022-08-08T08:20:10.240Z,63.299561
2022-08-08T08:21:19.209Z,59.7229
2022-08-08T08:22:30.555Z,62.304688
2022-08-08T08:23:40.832Z,59.820557
2022-08-08T08:24:50.242Z,61.212158
2022-08-08T08:26:00.977Z,61.480713
2022-08-08T08:27:10.807Z,59.692383
2022-08-08T08:28:21.356Z,59.594727
2022-08-08T08:29:31.142Z,59.594727
2022-08-08T08:30:40.834Z,59.564209
2022-08-08T08:31:54.259Z,58.770752
2022-08-08T08:33:01.225Z,58.770752
2022-08-08T08:34:11.903Z,58.099365
2022-08-08T08:35:21.357Z,58.001709
2022-08-08T08:36:30.291Z,58.428955
2022-08-08T08:38:05.738Z,58.92334
2022-08-08T08:38:50.702Z,59.94873
2022-08-08T08:40:00.772Z,59.851074
2022-08-08T08:41:12.984Z,59.747314
2022-08-08T08:42:19.470Z,60.375977
2022-08-08T08:43:29.449Z,59.875488
2022-08-08T08:44:39.094Z,60.345459
2022-08-08T08:45:48.784Z,58.624268
2022-08-08T08:46:59.418Z,57.928467
2022-08-08T08:48:10.111Z,60.48584
2022-08-08T08:49:20.782Z,59.960938
2022-08-08T08:50:32.343Z,58.24585
2022-08-08T08:51:41.666Z,57.080078
2022-08-08T08:52:59.696Z,58.569336
2022-08-08T08:54:01.503Z,57.873535
2022-08-08T08:55:10.188Z,58.47168
2022-08-08T08:56:23.791Z,60.455322
2022-08-08T08:57:30.256Z,59.234619
2022-08-08T08:58:39.225Z,58.612061
2022-08-08T08:59:59.146Z,58.38623
2022-08-08T09:01:05.441Z,58.361816
2022-08-08T09:02:11.982Z,55.712891
2022-08-08T09:03:22.002Z,57.592773
2022-08-08T09:04:38.855Z,55.908203
2022-08-08T09:05:48.989Z,55.981445
2022-08-08T09:06:53.996Z,57.073975
2022-08-08T09:08:12.252Z,57.861328
2022-08-08T09:09:18.691Z,55.456543
2022-08-08T09:10:28.256Z,55.657959
2022-08-08T09:11:46.891Z,57.70874
2022-08-08T09:12:46.324Z,54.840088
2022-08-08T09:13:56.106Z,55.79834
2022-08-08T09:15:06.257Z,54.486084
2022-08-08T09:16:15.448Z,54.388428
2022-08-08T09:17:31.915Z,54.095459
2022-08-08T09:18:36.831Z,53.204346
2022-08-08T09:21:55.075Z,53.375244
2022-08-08T09:21:55.876Z,54.388428
2022-08-08T09:22:06.954Z,53.277588
2022-08-08T09:23:17.477Z,55.474854
2022-08-08T09:24:25.244Z,54.364014
2022-08-08T09:25:35.471Z,53.869629
2022-08-08T09:26:47.283Z,54.534912
2022-08-08T09:27:56.605Z,54.663086
2022-08-08T09:29:08.363Z,52.142334
2022-08-08T09:30:17.247Z,54.644775
2022-08-08T09:31:25.233Z,56.231689
2022-08-08T09:32:35.909Z,56.005859
2022-08-08T09:33:55.037Z,54.669189
2022-08-08T09:34:57.306Z,56.02417
2022-08-08T09:36:07.026Z,54.290771
2022-08-08T09:37:28.921Z,52.978516
2022-08-08T09:38:27.822Z,52.386475
2022-08-08T09:39:37.061Z,53.179932
2022-08-08T09:40:52.614Z,53.448486
2022-08-08T09:42:14.819Z,52.728271
2022-08-08T09:43:16.480Z,52.13623
2022-08-08T09:44:18.740Z,52.13623
2022-08-08T09:45:55.595Z,51.470947
2022-08-08T09:46:40.020Z,52.978516
2022-08-08T09:48:05.342Z,52.581787
2022-08-08T09:49:04.567Z,53.570557
2022-08-08T09:50:13.815Z,51.696777
2022-08-08T09:51:20.660Z,52.288818
2022-08-08T09:52:57.042Z,52.655029
2022-08-08T09:53:54.423Z,51.074219
2022-08-08T09:54:52.644Z,52.856445
2022-08-08T09:56:04.042Z,52.435303
2022-08-08T09:57:16.036Z,52.01416
2022-08-08T09:58:26.239Z,50.531006
2022-08-08T09:59:53.625Z,52.142334
2022-08-08T10:00:50.239Z,52.508545
2022-08-08T10:01:58.841Z,53.076172
2022-08-08T10:03:05.319Z,53.149414
2022-08-08T10:04:14.969Z,52.038574
2022-08-08T10:05:25.950Z,50.952148
2022-08-08T10:06:35.792Z,50.067139
2022-08-08T10:07:45.921Z,50.238037
2022-08-08T10:08:55.616Z,50.140381
2022-08-08T10:10:06.926Z,50.90332
2022-08-08T10:12:22.861Z,49.127197
2022-08-08T10:12:27.237Z,49.79248
2022-08-08T10:13:35.955Z,50.286865
2022-08-08T10:14:46.008Z,50.286865
2022-08-08T10:15:58.996Z,50.091553
2022-08-08T10:17:06.340Z,49.328613
2022-08-08T10:18:17.791Z,49.743652
2022-08-08T10:19:25.776Z,50.561523
2022-08-08T10:20:40.417Z,50.067139
2022-08-08T10:21:50.364Z,49.768066
2022-08-08T10:22:56.805Z,49.768066
2022-08-08T10:24:12.068Z,50.360107
2022-08-08T10:25:18.235Z,49.249268
2022-08-08T10:26:30.368Z,50.238037
2022-08-08T10:27:38.605Z,51.000977
2022-08-08T10:28:53.803Z,50.164795
2022-08-08T10:29:59.786Z,48.760986
2022-08-08T10:31:09.620Z,48.858643
2022-08-08T10:32:18.399Z,49.060059
2022-08-08T10:33:38.125Z,49.450684
2022-08-08T10:34:39.719Z,49.182129
2022-08-08T10:36:07.013Z,48.66333
2022-08-08T10:37:01.051Z,49.645996
2022-08-08T10:38:10.833Z,50.43335
2022-08-08T10:39:23.236Z,49.053955
2022-08-08T10:40:32.277Z,49.32251
2022-08-08T10:41:58.688Z,50.78125
2022-08-08T10:42:52.392Z,52.435303
2022-08-08T10:44:02.060Z,51.000977
2022-08-08T10:45:11.722Z,51.745605
2022-08-08T10:46:29.456Z,50.732422
2022-08-08T10:47:42.933Z,49.719238
2022-08-08T10:48:56.337Z,48.907471
2022-08-08T10:50:00.178Z,49.572754
2022-08-08T10:51:01.051Z,49.645996
2022-08-08T10:52:11.733Z,49.353027
2022-08-08T10:53:21.549Z,48.980713
2022-08-08T10:54:31.203Z,49.157715
2022-08-08T10:55:45.819Z,48.956299
2022-08-08T10:56:52.493Z,49.645996
2022-08-08T10:58:01.200Z,48.071289
2022-08-08T10:59:12.309Z,48.071289
2022-08-08T11:00:20.745Z,47.875977
2022-08-08T11:01:33.264Z,47.161865
2022-08-08T11:02:39.896Z,46.936035
2022-08-08T11:03:52.709Z,49.053955
2022-08-08T11:05:00.234Z,48.834229
2022-08-08T11:06:12.445Z,47.821045
2022-08-08T11:07:39.015Z,48.291016
2022-08-08T11:08:39.106Z,49.060059
2022-08-08T11:09:39.855Z,48.937988
2022-08-08T11:10:49.578Z,47.900391
2022-08-08T11:12:00.477Z,48.120117
2022-08-08T11:13:33.912Z,48.022461
2022-08-08T11:14:22.863Z,48.712158
2022-08-08T11:15:30.547Z,49.523926
2022-08-08T11:16:38.832Z,50.018311
2022-08-08T11:17:59.081Z,48.242188
2022-08-08T11:18:58.209Z,48.461914
2022-08-08T11:20:10.683Z,49.54834
2022-08-08T11:21:19.446Z,50.189209
2022-08-08T11:22:27.406Z,47.918701
2022-08-08T11:23:35.963Z,49.200439
2022-08-08T11:24:45.640Z,47.796631
2022-08-08T11:25:57.076Z,48.168945
2022-08-08T11:27:10.832Z,48.858643
2022-08-08T11:28:14.831Z,46.887207
2022-08-08T11:29:29.569Z,48.095703
2022-08-08T11:30:35.179Z,48.712158
2022-08-08T11:31:47.029Z,48.4375
2022-08-08T11:32:55.518Z,49.346924
2022-08-08T11:34:23.072Z,48.55957
2022-08-08T11:35:24.633Z,49.963379
2022-08-08T11:36:28.055Z,50.360107
2022-08-08T11:37:39.752Z,50.189209
2022-08-08T11:38:54.540Z,50.585938
2022-08-08T11:39:57.904Z,49.67041
2022-08-08T11:41:08.061Z,49.078369
2022-08-08T11:42:17.753Z,50.561523
2022-08-08T11:43:38.697Z,48.876953
2022-08-08T11:44:38.058Z,48.730469
2022-08-08T11:46:07.248Z,50.189209
2022-08-08T11:46:57.391Z,50.756836
2022-08-08T11:48:09.558Z,50.732422
2022-08-08T11:49:17.253Z,50.830078
2022-08-08T11:50:25.389Z,49.304199
2022-08-08T11:51:39.312Z,48.217773
2022-08-08T11:52:47.405Z,48.7854
2022-08-08T11:53:59.380Z,47.796631
2022-08-08T11:55:06.107Z,48.266602
2022-08-08T11:56:14.720Z,48.681641
2022-08-08T11:57:27.148Z,49.865723
2022-08-08T11:58:34.059Z,49.597168
2022-08-08T11:59:58.110Z,51.153564
2022-08-08T12:00:54.465Z,50.708008
2022-08-08T12:02:21.630Z,48.022461
2022-08-08T12:03:16.079Z,48.492432
2022-08-08T12:04:25.436Z,48.144531
2022-08-08T12:05:34.134Z,46.942139
2022-08-08T12:06:43.725Z,47.137451
2022-08-08T12:07:55.926Z,49.89624
2022-08-08T12:09:04.064Z,47.827148
2022-08-08T12:10:12.740Z,46.252441
2022-08-08T12:11:23.105Z,45.861816
2022-08-08T12:12:33.102Z,45.959473
2022-08-08T12:14:03.235Z,46.350098
2022-08-08T12:14:54.647Z,46.5271
2022-08-08T12:16:04.173Z,46.5271
2022-08-08T12:17:12.932Z,45.715332
2022-08-08T12:18:24.342Z,47.705078
2022-08-08T12:19:38.050Z,46.154785
2022-08-08T12:20:41.996Z,46.746826
2022-08-08T12:21:58.442Z,46.5271
2022-08-08T12:23:02.339Z,45.935059
2022-08-08T12:24:12.024Z,47.290039
2022-08-08T12:25:24.621Z,46.154785
2022-08-08T12:26:35.343Z,46.66748
2022-08-08T12:27:43.438Z,48.223877
2022-08-08T12:28:52.798Z,46.130371
2022-08-08T12:30:02.011Z,46.972656
2022-08-08T12:31:12.097Z,46.362305
2022-08-08T12:32:22.437Z,44.671631
2022-08-08T12:33:36.997Z,44.9646
2022-08-08T12:34:42.396Z,44.830322
2022-08-08T12:35:51.907Z,46.081543
2022-08-08T12:36:59.815Z,46.966553
2022-08-08T12:38:09.478Z,46.350098
2022-08-08T12:39:20.358Z,46.600342
2022-08-08T12:40:31.080Z,45.422363
2022-08-08T12:41:57.609Z,45.446777
2022-08-08T12:42:49.242Z,45.782471
2022-08-08T12:44:00.262Z,48.834229
2022-08-08T12:45:20.202Z,46.594238
2022-08-08T12:46:18.974Z,46.887207
2022-08-08T12:47:43.623Z,47.753906
2022-08-08T12:48:39.527Z,46.551514
2022-08-08T12:49:50.192Z,45.324707
2022-08-08T12:50:59.856Z,46.307373
2022-08-08T12:52:14.294Z,45.007324
2022-08-08T12:53:20.144Z,46.282959
2022-08-08T12:54:29.828Z,45.08667
2022-08-08T12:56:04.190Z,45.239258
2022-08-08T12:56:51.429Z,43.548584
2022-08-08T12:58:02.245Z,43.566895
2022-08-08T12:59:12.148Z,43.786621
2022-08-08T13:00:20.789Z,45.007324
2022-08-08T13:01:34.708Z,44.592285
2022-08-08T13:02:51.893Z,44.824219
2022-08-08T13:03:52.969Z,43.920898
2022-08-08T13:05:05.824Z,42.327881
2022-08-08T13:06:14.320Z,42.523193
2022-08-08T13:08:01.794Z,41.937256
2022-08-08T13:08:36.431Z,42.645264
2022-08-08T13:10:01.000Z,42.76123
2022-08-08T13:10:56.461Z,43.078613
2022-08-08T13:12:19.680Z,44.104004
2022-08-08T13:13:15.357Z,44.732666
2022-08-08T13:14:25.027Z,45.172119
2022-08-08T13:15:33.669Z,47.576904
2022-08-08T13:16:49.261Z,46.789551
2022-08-08T13:18:10.343Z,47.009277
2022-08-08T13:19:07.810Z,47.625732
2022-08-08T13:20:15.488Z,47.277832